sensor_id;sensor_type;location;lat;lon;timestamp;P1;durP1;ratioP1;P2;durP2;ratioP2
76396;SDS011;66045;51.622;5.526;2023-01-30T00:00:01;5.28;;;3.65;;
76396;SDS011;66045;51.622;5.526;2023-01-30T00:02:28;5.07;;;3.88;;
76396;SDS011;66045;51.622;5.526;2023-01-30T00:04:53;4.63;;;3.67;;
76396;SDS011;66045;51.622;5.526;2023-01-30T00:07:18;6.68;;;4.15;;
76396;SDS011;66045;51.622;5.526;2023-01-30T00:09:44;4.53;;;3.72;;
76396;SDS011;66045;51.622;5.526;2023-01-30T00:12:11;4.72;;;3.53;;
76396;SDS011;66045;51.622;5.526;2023-01-30T00:14:36;4.78;;;3.75;;
76396;SDS011;66045;51.622;5.526;2023-01-30T00:17:02;5.45;;;4.07;;
76396;SDS011;66045;51.622;5.526;2023-01-30T00:19:27;4.93;;;3.85;;
76396;SDS011;66045;51.622;5.526;2023-01-30T00:21:52;4.75;;;3.97;;
76396;SDS011;66045;51.622;5.526;2023-01-30T00:24:18;4.75;;;3.80;;
76396;SDS011;66045;51.622;5.526;2023-01-30T00:26:43;5.40;;;4.15;;
76396;SDS011;66045;51.622;5.526;2023-01-30T00:29:08;4.18;;;3.60;;
76396;SDS011;66045;51.622;5.526;2023-01-30T00:31:34;5.65;;;3.95;;
76396;SDS011;66045;51.622;5.526;2023-01-30T00:33:59;5.78;;;3.92;;
76396;SDS011;66045;51.622;5.526;2023-01-30T00:36:24;4.65;;;3.80;;
76396;SDS011;66045;51.622;5.526;2023-01-30T00:38:50;5.90;;;3.92;;
76396;SDS011;66045;51.622;5.526;2023-01-30T00:41:15;5.55;;;3.95;;
76396;SDS011;66045;51.622;5.526;2023-01-30T00:43:42;5.05;;;3.83;;
76396;SDS011;66045;51.622;5.526;2023-01-30T00:46:28;4.47;;;3.88;;
76396;SDS011;66045;51.622;5.526;2023-01-30T00:49:16;5.40;;;4.05;;
76396;SDS011;66045;51.622;5.526;2023-01-30T00:51:42;4.78;;;3.70;;
76396;SDS011;66045;51.622;5.526;2023-01-30T00:54:07;5.50;;;3.70;;
76396;SDS011;66045;51.622;5.526;2023-01-30T00:56:33;4.50;;;3.58;;
76396;SDS011;66045;51.622;5.526;2023-01-30T00:58:58;4.68;;;3.70;;
76396;SDS011;66045;51.622;5.526;2023-01-30T01:01:24;4.63;;;3.67;;
76396;SDS011;66045;51.622;5.526;2023-01-30T01:03:49;5.55;;;3.60;;
76396;SDS011;66045;51.622;5.526;2023-01-30T01:06:14;4.57;;;3.55;;
76396;SDS011;66045;51.622;5.526;2023-01-30T01:08:40;4.32;;;3.80;;
76396;SDS011;66045;51.622;5.526;2023-01-30T01:11:05;5.53;;;3.83;;
76396;SDS011;66045;51.622;5.526;2023-01-30T01:13:30;5.45;;;4.25;;
76396;SDS011;66045;51.622;5.526;2023-01-30T01:15:56;6.32;;;4.25;;
76396;SDS011;66045;51.622;5.526;2023-01-30T01:18:21;4.88;;;3.75;;
76396;SDS011;66045;51.622;5.526;2023-01-30T01:20:47;4.45;;;3.92;;
76396;SDS011;66045;51.622;5.526;2023-01-30T01:23:12;5.65;;;3.88;;
76396;SDS011;66045;51.622;5.526;2023-01-30T01:25:38;3.92;;;3.60;;
76396;SDS011;66045;51.622;5.526;2023-01-30T01:28:03;5.68;;;4.05;;
76396;SDS011;66045;51.622;5.526;2023-01-30T01:30:29;5.28;;;4.00;;
76396;SDS011;66045;51.622;5.526;2023-01-30T01:32:55;5.30;;;4.03;;
76396;SDS011;66045;51.622;5.526;2023-01-30T01:35:21;5.65;;;3.97;;
76396;SDS011;66045;51.622;5.526;2023-01-30T01:37:46;5.47;;;3.70;;
76396;SDS011;66045;51.622;5.526;2023-01-30T01:40:16;4.68;;;3.78;;
76396;SDS011;66045;51.622;5.526;2023-01-30T01:43:08;4.88;;;3.60;;
76396;SDS011;66045;51.622;5.526;2023-01-30T01:45:40;5.88;;;3.95;;
76396;SDS011;66045;51.622;5.526;2023-01-30T01:48:40;3.92;;;3.50;;
76396;SDS011;66045;51.622;5.526;2023-01-30T01:51:16;5.78;;;4.40;;
76396;SDS011;66045;51.622;5.526;2023-01-30T01:53:53;6.15;;;3.97;;
76396;SDS011;66045;51.622;5.526;2023-01-30T01:56:22;4.60;;;3.70;;
76396;SDS011;66045;51.622;5.526;2023-01-30T01:58:53;4.95;;;4.00;;
76396;SDS011;66045;51.622;5.526;2023-01-30T02:01:22;4.18;;;3.70;;
76396;SDS011;66045;51.622;5.526;2023-01-30T02:03:49;5.05;;;4.00;;
76396;SDS011;66045;51.622;5.526;2023-01-30T02:06:19;4.38;;;3.70;;
76396;SDS011;66045;51.622;5.526;2023-01-30T02:08:47;5.22;;;3.83;;
76396;SDS011;66045;51.622;5.526;2023-01-30T02:11:20;5.47;;;4.10;;
76396;SDS011;66045;51.622;5.526;2023-01-30T02:13:49;5.43;;;4.13;;
76396;SDS011;66045;51.622;5.526;2023-01-30T02:16:16;4.50;;;3.95;;
76396;SDS011;66045;51.622;5.526;2023-01-30T02:18:42;5.60;;;3.88;;
76396;SDS011;66045;51.622;5.526;2023-01-30T02:50:06;4.30;;;3.45;;
76396;SDS011;66045;51.622;5.526;2023-01-30T02:52:38;3.80;;;3.40;;
76396;SDS011;66045;51.622;5.526;2023-01-30T02:55:06;4.60;;;3.45;;
76396;SDS011;66045;51.622;5.526;2023-01-30T02:57:42;4.95;;;4.10;;
76396;SDS011;66045;51.622;5.526;2023-01-30T03:00:08;4.07;;;3.60;;
76396;SDS011;66045;51.622;5.526;2023-01-30T03:08:43;4.57;;;4.05;;
76396;SDS011;66045;51.622;5.526;2023-01-30T03:11:07;5.32;;;3.83;;
76396;SDS011;66045;51.622;5.526;2023-01-30T03:16:36;4.13;;;3.60;;
76396;SDS011;66045;51.622;5.526;2023-01-30T03:19:04;3.88;;;3.25;;
76396;SDS011;66045;51.622;5.526;2023-01-30T03:21:33;4.50;;;3.75;;
76396;SDS011;66045;51.622;5.526;2023-01-30T03:23:59;4.90;;;3.75;;
76396;SDS011;66045;51.622;5.526;2023-01-30T03:26:25;5.00;;;3.60;;
76396;SDS011;66045;51.622;5.526;2023-01-30T03:31:20;5.32;;;3.38;;
76396;SDS011;66045;51.622;5.526;2023-01-30T03:33:45;4.85;;;3.78;;
76396;SDS011;66045;51.622;5.526;2023-01-30T03:36:10;5.40;;;3.58;;
76396;SDS011;66045;51.622;5.526;2023-01-30T03:38:36;4.72;;;3.42;;
76396;SDS011;66045;51.622;5.526;2023-01-30T03:41:02;3.80;;;3.25;;
76396;SDS011;66045;51.622;5.526;2023-01-30T03:43:29;5.30;;;3.40;;
76396;SDS011;66045;51.622;5.526;2023-01-30T03:45:54;5.60;;;3.60;;
76396;SDS011;66045;51.622;5.526;2023-01-30T03:48:20;4.68;;;3.47;;
76396;SDS011;66045;51.622;5.526;2023-01-30T03:50:45;4.60;;;3.55;;
76396;SDS011;66045;51.622;5.526;2023-01-30T03:53:10;3.92;;;3.35;;
76396;SDS011;66045;51.622;5.526;2023-01-30T03:55:36;4.32;;;3.40;;
76396;SDS011;66045;51.622;5.526;2023-01-30T03:58:01;3.38;;;3.03;;
76396;SDS011;66045;51.622;5.526;2023-01-30T04:00:27;4.57;;;3.70;;
76396;SDS011;66045;51.622;5.526;2023-01-30T04:02:52;3.83;;;3.33;;
76396;SDS011;66045;51.622;5.526;2023-01-30T04:05:19;4.70;;;3.75;;
76396;SDS011;66045;51.622;5.526;2023-01-30T04:07:44;3.85;;;3.45;;
76396;SDS011;66045;51.622;5.526;2023-01-30T04:10:10;4.13;;;3.53;;
76396;SDS011;66045;51.622;5.526;2023-01-30T04:12:35;4.05;;;3.30;;
76396;SDS011;66045;51.622;5.526;2023-01-30T04:15:01;4.22;;;3.33;;
76396;SDS011;66045;51.622;5.526;2023-01-30T04:17:26;3.53;;;3.17;;
76396;SDS011;66045;51.622;5.526;2023-01-30T04:19:51;3.53;;;3.10;;
76396;SDS011;66045;51.622;5.526;2023-01-30T04:22:17;3.63;;;3.17;;
76396;SDS011;66045;51.622;5.526;2023-01-30T04:24:42;3.63;;;3.33;;
76396;SDS011;66045;51.622;5.526;2023-01-30T04:27:08;3.88;;;3.03;;
76396;SDS011;66045;51.622;5.526;2023-01-30T04:29:33;3.30;;;2.95;;
76396;SDS011;66045;51.622;5.526;2023-01-30T04:31:59;4.40;;;3.13;;
76396;SDS011;66045;51.622;5.526;2023-01-30T04:34:24;4.10;;;3.47;;
76396;SDS011;66045;51.622;5.526;2023-01-30T04:36:49;3.50;;;3.20;;
76396;SDS011;66045;51.622;5.526;2023-01-30T04:39:15;3.95;;;2.78;;
76396;SDS011;66045;51.622;5.526;2023-01-30T04:41:40;3.13;;;2.83;;
76396;SDS011;66045;51.622;5.526;2023-01-30T04:44:05;3.20;;;2.85;;
76396;SDS011;66045;51.622;5.526;2023-01-30T04:46:31;3.33;;;2.97;;
76396;SDS011;66045;51.622;5.526;2023-01-30T04:48:56;3.42;;;3.03;;
76396;SDS011;66045;51.622;5.526;2023-01-30T04:51:21;3.85;;;3.00;;
76396;SDS011;66045;51.622;5.526;2023-01-30T04:53:47;5.18;;;3.30;;
76396;SDS011;66045;51.622;5.526;2023-01-30T04:56:12;3.08;;;2.65;;
76396;SDS011;66045;51.622;5.526;2023-01-30T04:58:37;3.75;;;2.83;;
76396;SDS011;66045;51.622;5.526;2023-01-30T05:03:49;3.33;;;2.90;;
76396;SDS011;66045;51.622;5.526;2023-01-30T05:06:15;3.22;;;2.80;;
76396;SDS011;66045;51.622;5.526;2023-01-30T05:08:40;3.35;;;2.58;;
76396;SDS011;66045;51.622;5.526;2023-01-30T05:11:06;4.35;;;3.10;;
76396;SDS011;66045;51.622;5.526;2023-01-30T05:13:31;3.42;;;2.80;;
76396;SDS011;66045;51.622;5.526;2023-01-30T05:15:57;4.65;;;3.00;;
76396;SDS011;66045;51.622;5.526;2023-01-30T05:18:22;4.10;;;2.80;;
76396;SDS011;66045;51.622;5.526;2023-01-30T05:20:47;4.07;;;2.95;;
76396;SDS011;66045;51.622;5.526;2023-01-30T05:23:14;4.00;;;2.88;;
76396;SDS011;66045;51.622;5.526;2023-01-30T05:25:39;3.42;;;2.78;;
76396;SDS011;66045;51.622;5.526;2023-01-30T05:28:05;3.10;;;2.72;;
76396;SDS011;66045;51.622;5.526;2023-01-30T05:30:30;3.22;;;2.83;;
76396;SDS011;66045;51.622;5.526;2023-01-30T05:32:56;3.40;;;2.60;;
76396;SDS011;66045;51.622;5.526;2023-01-30T05:35:22;3.00;;;2.47;;
76396;SDS011;66045;51.622;5.526;2023-01-30T05:37:50;4.07;;;3.03;;
76396;SDS011;66045;51.622;5.526;2023-01-30T05:40:16;3.10;;;2.72;;
76396;SDS011;66045;51.622;5.526;2023-01-30T05:42:42;3.53;;;2.72;;
76396;SDS011;66045;51.622;5.526;2023-01-30T05:45:07;2.92;;;2.50;;
76396;SDS011;66045;51.622;5.526;2023-01-30T05:47:34;4.38;;;2.78;;
76396;SDS011;66045;51.622;5.526;2023-01-30T05:49:59;2.95;;;2.55;;
76396;SDS011;66045;51.622;5.526;2023-01-30T05:52:24;3.63;;;2.70;;
76396;SDS011;66045;51.622;5.526;2023-01-30T05:54:50;3.78;;;2.63;;
76396;SDS011;66045;51.622;5.526;2023-01-30T05:57:15;4.43;;;2.50;;
76396;SDS011;66045;51.622;5.526;2023-01-30T05:59:40;3.65;;;2.58;;
76396;SDS011;66045;51.622;5.526;2023-01-30T06:02:06;5.07;;;2.60;;
76396;SDS011;66045;51.622;5.526;2023-01-30T06:04:31;3.22;;;2.42;;
76396;SDS011;66045;51.622;5.526;2023-01-30T06:06:56;4.68;;;2.83;;
76396;SDS011;66045;51.622;5.526;2023-01-30T06:09:22;3.28;;;2.80;;
76396;SDS011;66045;51.622;5.526;2023-01-30T06:11:47;4.47;;;2.33;;
76396;SDS011;66045;51.622;5.526;2023-01-30T06:14:12;2.90;;;2.45;;
76396;SDS011;66045;51.622;5.526;2023-01-30T06:16:38;2.45;;;2.17;;
76396;SDS011;66045;51.622;5.526;2023-01-30T06:19:03;4.03;;;2.40;;
76396;SDS011;66045;51.622;5.526;2023-01-30T06:21:29;3.35;;;2.40;;
76396;SDS011;66045;51.622;5.526;2023-01-30T06:23:55;3.60;;;2.20;;
76396;SDS011;66045;51.622;5.526;2023-01-30T06:26:20;3.15;;;2.35;;
76396;SDS011;66045;51.622;5.526;2023-01-30T06:28:46;3.63;;;2.42;;
76396;SDS011;66045;51.622;5.526;2023-01-30T06:31:12;3.30;;;2.72;;
76396;SDS011;66045;51.622;5.526;2023-01-30T06:33:37;3.42;;;2.35;;
76396;SDS011;66045;51.622;5.526;2023-01-30T06:36:03;3.63;;;2.20;;
76396;SDS011;66045;51.622;5.526;2023-01-30T06:38:28;2.83;;;2.08;;
76396;SDS011;66045;51.622;5.526;2023-01-30T06:40:53;3.53;;;2.65;;
76396;SDS011;66045;51.622;5.526;2023-01-30T06:43:19;4.57;;;2.55;;
76396;SDS011;66045;51.622;5.526;2023-01-30T06:45:44;2.97;;;2.22;;
76396;SDS011;66045;51.622;5.526;2023-01-30T06:48:10;5.85;;;2.60;;
76396;SDS011;66045;51.622;5.526;2023-01-30T06:50:35;4.22;;;2.22;;
76396;SDS011;66045;51.622;5.526;2023-01-30T06:53:01;2.55;;;2.10;;
76396;SDS011;66045;51.622;5.526;2023-01-30T06:55:29;4.07;;;2.33;;
76396;SDS011;66045;51.622;5.526;2023-01-30T06:58:04;3.00;;;1.92;;
76396;SDS011;66045;51.622;5.526;2023-01-30T07:00:32;2.90;;;2.20;;
76396;SDS011;66045;51.622;5.526;2023-01-30T07:02:58;2.88;;;2.35;;
76396;SDS011;66045;51.622;5.526;2023-01-30T07:05:24;3.00;;;2.35;;
76396;SDS011;66045;51.622;5.526;2023-01-30T07:07:49;2.65;;;2.25;;
76396;SDS011;66045;51.622;5.526;2023-01-30T07:10:15;3.08;;;1.85;;
76396;SDS011;66045;51.622;5.526;2023-01-30T07:12:40;3.78;;;2.22;;
76396;SDS011;66045;51.622;5.526;2023-01-30T07:15:06;2.83;;;1.90;;
76396;SDS011;66045;51.622;5.526;2023-01-30T07:17:32;2.75;;;2.10;;
76396;SDS011;66045;51.622;5.526;2023-01-30T07:19:58;3.13;;;2.13;;
76396;SDS011;66045;51.622;5.526;2023-01-30T07:22:23;4.05;;;2.15;;
76396;SDS011;66045;51.622;5.526;2023-01-30T07:24:49;2.83;;;1.98;;
76396;SDS011;66045;51.622;5.526;2023-01-30T07:27:14;2.63;;;1.90;;
76396;SDS011;66045;51.622;5.526;2023-01-30T07:29:39;2.67;;;1.95;;
76396;SDS011;66045;51.622;5.526;2023-01-30T07:32:05;2.45;;;1.90;;
76396;SDS011;66045;51.622;5.526;2023-01-30T07:34:36;2.83;;;1.80;;
76396;SDS011;66045;51.622;5.526;2023-01-30T07:37:01;3.05;;;2.00;;
76396;SDS011;66045;51.622;5.526;2023-01-30T07:39:27;3.25;;;2.13;;
76396;SDS011;66045;51.622;5.526;2023-01-30T07:41:52;3.47;;;1.90;;
76396;SDS011;66045;51.622;5.526;2023-01-30T07:44:17;5.47;;;1.83;;
76396;SDS011;66045;51.622;5.526;2023-01-30T07:46:43;3.05;;;2.00;;
76396;SDS011;66045;51.622;5.526;2023-01-30T07:49:08;3.20;;;1.92;;
76396;SDS011;66045;51.622;5.526;2023-01-30T07:51:34;4.28;;;1.92;;
76396;SDS011;66045;51.622;5.526;2023-01-30T07:53:59;4.00;;;1.88;;
76396;SDS011;66045;51.622;5.526;2023-01-30T07:56:26;5.53;;;2.17;;
76396;SDS011;66045;51.622;5.526;2023-01-30T07:58:52;7.80;;;2.00;;
76396;SDS011;66045;51.622;5.526;2023-01-30T08:01:19;4.25;;;1.75;;
76396;SDS011;66045;51.622;5.526;2023-01-30T08:03:44;4.70;;;2.00;;
76396;SDS011;66045;51.622;5.526;2023-01-30T08:06:11;1.95;;;1.75;;
76396;SDS011;66045;51.622;5.526;2023-01-30T08:08:37;3.42;;;1.80;;
76396;SDS011;66045;51.622;5.526;2023-01-30T08:11:03;3.30;;;1.90;;
76396;SDS011;66045;51.622;5.526;2023-01-30T08:13:29;3.08;;;1.63;;
76396;SDS011;66045;51.622;5.526;2023-01-30T08:15:57;5.82;;;1.80;;
76396;SDS011;66045;51.622;5.526;2023-01-30T08:18:23;5.65;;;1.90;;
76396;SDS011;66045;51.622;5.526;2023-01-30T08:20:49;3.25;;;1.70;;
76396;SDS011;66045;51.622;5.526;2023-01-30T08:23:14;5.07;;;1.90;;
76396;SDS011;66045;51.622;5.526;2023-01-30T08:25:40;5.25;;;1.67;;
76396;SDS011;66045;51.622;5.526;2023-01-30T08:28:05;4.28;;;2.20;;
76396;SDS011;66045;51.622;5.526;2023-01-30T08:30:31;10.10;;;2.50;;
76396;SDS011;66045;51.622;5.526;2023-01-30T08:32:56;11.45;;;2.42;;
76396;SDS011;66045;51.622;5.526;2023-01-30T08:35:23;6.35;;;2.60;;
76396;SDS011;66045;51.622;5.526;2023-01-30T08:37:48;9.50;;;1.95;;
76396;SDS011;66045;51.622;5.526;2023-01-30T08:40:13;11.73;;;2.42;;
76396;SDS011;66045;51.622;5.526;2023-01-30T08:42:39;9.23;;;2.20;;
76396;SDS011;66045;51.622;5.526;2023-01-30T08:45:07;11.05;;;2.47;;
76396;SDS011;66045;51.622;5.526;2023-01-30T08:47:32;8.13;;;2.40;;
76396;SDS011;66045;51.622;5.526;2023-01-30T08:49:59;7.65;;;2.72;;
76396;SDS011;66045;51.622;5.526;2023-01-30T08:52:25;6.90;;;2.17;;
76396;SDS011;66045;51.622;5.526;2023-01-30T08:54:50;11.80;;;2.15;;
76396;SDS011;66045;51.622;5.526;2023-01-30T08:57:15;8.73;;;2.00;;
76396;SDS011;66045;51.622;5.526;2023-01-30T08:59:41;7.20;;;2.00;;
76396;SDS011;66045;51.622;5.526;2023-01-30T09:02:09;6.70;;;2.28;;
76396;SDS011;66045;51.622;5.526;2023-01-30T09:04:36;9.70;;;2.28;;
76396;SDS011;66045;51.622;5.526;2023-01-30T09:07:02;7.72;;;1.85;;
76396;SDS011;66045;51.622;5.526;2023-01-30T09:09:28;6.82;;;2.00;;
76396;SDS011;66045;51.622;5.526;2023-01-30T09:11:54;7.25;;;1.83;;
76396;SDS011;66045;51.622;5.526;2023-01-30T09:14:19;8.32;;;2.22;;
76396;SDS011;66045;51.622;5.526;2023-01-30T09:16:48;8.18;;;2.30;;
76396;SDS011;66045;51.622;5.526;2023-01-30T09:19:20;10.35;;;2.10;;
76396;SDS011;66045;51.622;5.526;2023-01-30T09:21:48;6.10;;;1.75;;
76396;SDS011;66045;51.622;5.526;2023-01-30T09:24:14;5.53;;;1.70;;
76396;SDS011;66045;51.622;5.526;2023-01-30T09:26:39;5.15;;;1.95;;
76396;SDS011;66045;51.622;5.526;2023-01-30T09:29:08;9.43;;;2.50;;
76396;SDS011;66045;51.622;5.526;2023-01-30T09:31:34;5.57;;;1.65;;
76396;SDS011;66045;51.622;5.526;2023-01-30T09:34:00;7.65;;;2.20;;
76396;SDS011;66045;51.622;5.526;2023-01-30T09:36:25;12.50;;;2.45;;
76396;SDS011;66045;51.622;5.526;2023-01-30T09:38:50;7.28;;;1.98;;
76396;SDS011;66045;51.622;5.526;2023-01-30T09:41:36;10.77;;;2.28;;
76396;SDS011;66045;51.622;5.526;2023-01-30T09:47:11;7.25;;;2.03;;
76396;SDS011;66045;51.622;5.526;2023-01-30T09:55:22;7.13;;;1.90;;
76396;SDS011;66045;51.622;5.526;2023-01-30T09:57:49;6.20;;;2.13;;
76396;SDS011;66045;51.622;5.526;2023-01-30T10:05:14;9.23;;;2.47;;
76396;SDS011;66045;51.622;5.526;2023-01-30T10:07:53;7.30;;;1.80;;
76396;SDS011;66045;51.622;5.526;2023-01-30T10:13:05;9.77;;;2.25;;
76396;SDS011;66045;51.622;5.526;2023-01-30T10:18:52;9.45;;;2.47;;
76396;SDS011;66045;51.622;5.526;2023-01-30T10:21:36;6.57;;;1.75;;
76396;SDS011;66045;51.622;5.526;2023-01-30T10:26:38;6.60;;;2.20;;
76396;SDS011;66045;51.622;5.526;2023-01-30T10:29:09;4.53;;;1.63;;
76396;SDS011;66045;51.622;5.526;2023-01-30T10:31:44;7.93;;;2.10;;
76396;SDS011;66045;51.622;5.526;2023-01-30T10:34:15;5.28;;;2.00;;
76396;SDS011;66045;51.622;5.526;2023-01-30T10:36:47;5.00;;;1.90;;
76396;SDS011;66045;51.622;5.526;2023-01-30T10:39:40;8.82;;;2.28;;
76396;SDS011;66045;51.622;5.526;2023-01-30T10:42:13;5.85;;;1.80;;
76396;SDS011;66045;51.622;5.526;2023-01-30T10:44:43;5.38;;;1.70;;
76396;SDS011;66045;51.622;5.526;2023-01-30T10:50:48;6.65;;;1.90;;
76396;SDS011;66045;51.622;5.526;2023-01-30T10:53:22;5.75;;;1.90;;
76396;SDS011;66045;51.622;5.526;2023-01-30T10:56:01;5.20;;;1.60;;
76396;SDS011;66045;51.622;5.526;2023-01-30T10:58:38;6.82;;;2.03;;
76396;SDS011;66045;51.622;5.526;2023-01-30T11:01:06;5.35;;;1.63;;
76396;SDS011;66045;51.622;5.526;2023-01-30T11:06:31;5.40;;;1.80;;
76396;SDS011;66045;51.622;5.526;2023-01-30T11:08:58;5.18;;;1.45;;
76396;SDS011;66045;51.622;5.526;2023-01-30T11:16:26;5.05;;;1.65;;
76396;SDS011;66045;51.622;5.526;2023-01-30T11:18:52;7.85;;;1.85;;
76396;SDS011;66045;51.622;5.526;2023-01-30T11:21:27;5.75;;;1.90;;
76396;SDS011;66045;51.622;5.526;2023-01-30T11:23:55;6.15;;;1.92;;
76396;SDS011;66045;51.622;5.526;2023-01-30T11:26:24;5.63;;;1.80;;
76396;SDS011;66045;51.622;5.526;2023-01-30T11:28:54;3.80;;;1.50;;
76396;SDS011;66045;51.622;5.526;2023-01-30T11:31:21;4.10;;;1.40;;
76396;SDS011;66045;51.622;5.526;2023-01-30T11:34:04;5.07;;;1.40;;
76396;SDS011;66045;51.622;5.526;2023-01-30T11:36:36;6.15;;;1.90;;
76396;SDS011;66045;51.622;5.526;2023-01-30T11:39:10;4.82;;;1.58;;
76396;SDS011;66045;51.622;5.526;2023-01-30T11:44:29;5.45;;;1.90;;
76396;SDS011;66045;51.622;5.526;2023-01-30T11:46:59;3.95;;;1.50;;
76396;SDS011;66045;51.622;5.526;2023-01-30T11:49:27;4.93;;;1.48;;
76396;SDS011;66045;51.622;5.526;2023-01-30T11:51:57;6.72;;;1.90;;
76396;SDS011;66045;51.622;5.526;2023-01-30T11:57:02;5.53;;;1.60;;
76396;SDS011;66045;51.622;5.526;2023-01-30T12:04:45;6.93;;;1.70;;
76396;SDS011;66045;51.622;5.526;2023-01-30T12:09:44;6.40;;;1.60;;
76396;SDS011;66045;51.622;5.526;2023-01-30T12:12:55;4.88;;;1.70;;
76396;SDS011;66045;51.622;5.526;2023-01-30T12:18:12;7.03;;;1.88;;
76396;SDS011;66045;51.622;5.526;2023-01-30T12:21:00;6.82;;;1.88;;
76396;SDS011;66045;51.622;5.526;2023-01-30T12:23:41;4.45;;;1.55;;
76396;SDS011;66045;51.622;5.526;2023-01-30T12:26:19;4.18;;;1.48;;
76396;SDS011;66045;51.622;5.526;2023-01-30T12:31:25;5.53;;;1.83;;
76396;SDS011;66045;51.622;5.526;2023-01-30T12:33:56;4.47;;;1.42;;
76396;SDS011;66045;51.622;5.526;2023-01-30T12:38:54;4.60;;;1.70;;
76396;SDS011;66045;51.622;5.526;2023-01-30T12:41:38;7.10;;;1.70;;
76396;SDS011;66045;51.622;5.526;2023-01-30T12:44:16;3.40;;;1.42;;
76396;SDS011;66045;51.622;5.526;2023-01-30T12:47:03;5.28;;;1.58;;
76396;SDS011;66045;51.622;5.526;2023-01-30T12:52:54;4.28;;;1.58;;
76396;SDS011;66045;51.622;5.526;2023-01-30T13:12:26;8.38;;;1.70;;
76396;SDS011;66045;51.622;5.526;2023-01-30T13:20:50;5.93;;;1.55;;
76396;SDS011;66045;51.622;5.526;2023-01-30T13:26:29;8.73;;;2.28;;
76396;SDS011;66045;51.622;5.526;2023-01-30T13:31:29;5.70;;;1.98;;
76396;SDS011;66045;51.622;5.526;2023-01-30T13:34:10;9.20;;;2.30;;
76396;SDS011;66045;51.622;5.526;2023-01-30T13:36:53;6.43;;;1.83;;
76396;SDS011;66045;51.622;5.526;2023-01-30T13:39:32;6.00;;;1.90;;
76396;SDS011;66045;51.622;5.526;2023-01-30T13:42:05;6.32;;;1.88;;
76396;SDS011;66045;51.622;5.526;2023-01-30T13:44:37;8.05;;;1.70;;
76396;SDS011;66045;51.622;5.526;2023-01-30T13:58:16;6.50;;;1.80;;
76396;SDS011;66045;51.622;5.526;2023-01-30T14:00:54;8.43;;;2.03;;
76396;SDS011;66045;51.622;5.526;2023-01-30T14:03:32;6.85;;;2.03;;
76396;SDS011;66045;51.622;5.526;2023-01-30T14:06:00;7.35;;;1.80;;
76396;SDS011;66045;51.622;5.526;2023-01-30T14:14:05;6.30;;;2.13;;
76396;SDS011;66045;51.622;5.526;2023-01-30T14:16:46;7.72;;;2.15;;
76396;SDS011;66045;51.622;5.526;2023-01-30T14:19:28;7.10;;;2.00;;
76396;SDS011;66045;51.622;5.526;2023-01-30T14:25:05;6.38;;;1.95;;
76396;SDS011;66045;51.622;5.526;2023-01-30T14:27:48;6.85;;;1.95;;
76396;SDS011;66045;51.622;5.526;2023-01-30T14:32:56;9.48;;;2.08;;
76396;SDS011;66045;51.622;5.526;2023-01-30T14:35:30;9.00;;;1.92;;
76396;SDS011;66045;51.622;5.526;2023-01-30T14:38:30;7.30;;;1.85;;
76396;SDS011;66045;51.622;5.526;2023-01-30T14:49:11;6.57;;;2.25;;
76396;SDS011;66045;51.622;5.526;2023-01-30T14:53:51;8.57;;;2.05;;
76396;SDS011;66045;51.622;5.526;2023-01-30T14:56:30;8.05;;;1.83;;
76396;SDS011;66045;51.622;5.526;2023-01-30T15:04:30;8.43;;;1.75;;
76396;SDS011;66045;51.622;5.526;2023-01-30T15:06:58;9.60;;;2.10;;
76396;SDS011;66045;51.622;5.526;2023-01-30T15:09:28;7.53;;;1.45;;
76396;SDS011;66045;51.622;5.526;2023-01-30T15:12:06;9.45;;;2.20;;
76396;SDS011;66045;51.622;5.526;2023-01-30T15:15:28;6.22;;;1.88;;
76396;SDS011;66045;51.622;5.526;2023-01-30T15:20:42;8.52;;;1.90;;
76396;SDS011;66045;51.622;5.526;2023-01-30T15:32:18;8.40;;;2.10;;
76396;SDS011;66045;51.622;5.526;2023-01-30T15:37:27;6.93;;;1.90;;
76396;SDS011;66045;51.622;5.526;2023-01-30T15:40:08;6.15;;;1.90;;
76396;SDS011;66045;51.622;5.526;2023-01-30T15:42:43;5.53;;;1.55;;
76396;SDS011;66045;51.622;5.526;2023-01-30T15:50:37;7.65;;;1.63;;
76396;SDS011;66045;51.622;5.526;2023-01-30T15:53:03;6.07;;;1.75;;
76396;SDS011;66045;51.622;5.526;2023-01-30T15:55:37;7.35;;;1.90;;
76396;SDS011;66045;51.622;5.526;2023-01-30T15:58:08;7.93;;;1.85;;
76396;SDS011;66045;51.622;5.526;2023-01-30T16:00:39;7.38;;;1.80;;
76396;SDS011;66045;51.622;5.526;2023-01-30T16:03:11;4.90;;;1.48;;
76396;SDS011;66045;51.622;5.526;2023-01-30T16:05:48;6.95;;;1.90;;
76396;SDS011;66045;51.622;5.526;2023-01-30T16:08:24;6.57;;;1.98;;
76396;SDS011;66045;51.622;5.526;2023-01-30T16:10:57;5.65;;;1.45;;
76396;SDS011;66045;51.622;5.526;2023-01-30T16:13:24;7.65;;;2.53;;
76396;SDS011;66045;51.622;5.526;2023-01-30T16:18:38;5.53;;;1.60;;
76396;SDS011;66045;51.622;5.526;2023-01-30T16:21:15;5.75;;;1.63;;
76396;SDS011;66045;51.622;5.526;2023-01-30T16:26:41;5.45;;;1.60;;
76396;SDS011;66045;51.622;5.526;2023-01-30T16:29:13;4.90;;;1.40;;
76396;SDS011;66045;51.622;5.526;2023-01-30T16:31:48;6.50;;;1.92;;
76396;SDS011;66045;51.622;5.526;2023-01-30T16:34:26;5.63;;;1.40;;
76396;SDS011;66045;51.622;5.526;2023-01-30T16:36:54;8.90;;;1.50;;
76396;SDS011;66045;51.622;5.526;2023-01-30T16:39:28;5.60;;;1.50;;
76396;SDS011;66045;51.622;5.526;2023-01-30T16:41:55;4.20;;;1.15;;
76396;SDS011;66045;51.622;5.526;2023-01-30T16:44:22;7.38;;;1.80;;
76396;SDS011;66045;51.622;5.526;2023-01-30T16:46:54;5.30;;;1.40;;
76396;SDS011;66045;51.622;5.526;2023-01-30T16:49:31;4.78;;;1.40;;
76396;SDS011;66045;51.622;5.526;2023-01-30T16:52:18;8.57;;;1.63;;
76396;SDS011;66045;51.622;5.526;2023-01-30T16:54:45;6.13;;;1.30;;
76396;SDS011;66045;51.622;5.526;2023-01-30T16:57:17;9.63;;;1.70;;
76396;SDS011;66045;51.622;5.526;2023-01-30T16:59:52;5.60;;;1.52;;
76396;SDS011;66045;51.622;5.526;2023-01-30T17:02:23;8.05;;;1.80;;
76396;SDS011;66045;51.622;5.526;2023-01-30T17:05:05;7.63;;;1.88;;
76396;SDS011;66045;51.622;5.526;2023-01-30T17:07:39;5.80;;;1.60;;
76396;SDS011;66045;51.622;5.526;2023-01-30T17:10:04;5.15;;;1.30;;
76396;SDS011;66045;51.622;5.526;2023-01-30T17:17:36;5.40;;;1.55;;
76396;SDS011;66045;51.622;5.526;2023-01-30T17:20:02;5.78;;;1.48;;
76396;SDS011;66045;51.622;5.526;2023-01-30T17:22:28;7.85;;;1.70;;
76396;SDS011;66045;51.622;5.526;2023-01-30T17:24:57;9.80;;;1.58;;
76396;SDS011;66045;51.622;5.526;2023-01-30T17:27:26;9.82;;;1.52;;
76396;SDS011;66045;51.622;5.526;2023-01-30T17:29:53;9.55;;;1.88;;
76396;SDS011;66045;51.622;5.526;2023-01-30T17:32:18;12.48;;;2.25;;
76396;SDS011;66045;51.622;5.526;2023-01-30T17:34:44;7.13;;;1.67;;
76396;SDS011;66045;51.622;5.526;2023-01-30T17:37:17;7.80;;;1.75;;
76396;SDS011;66045;51.622;5.526;2023-01-30T17:39:45;3.90;;;1.55;;
76396;SDS011;66045;51.622;5.526;2023-01-30T17:42:11;5.88;;;1.17;;
76396;SDS011;66045;51.622;5.526;2023-01-30T17:44:38;4.32;;;1.48;;
76396;SDS011;66045;51.622;5.526;2023-01-30T17:47:03;7.68;;;1.63;;
76396;SDS011;66045;51.622;5.526;2023-01-30T17:49:29;5.03;;;1.40;;
76396;SDS011;66045;51.622;5.526;2023-01-30T17:51:54;9.27;;;1.48;;
76396;SDS011;66045;51.622;5.526;2023-01-30T17:54:23;5.32;;;1.60;;
76396;SDS011;66045;51.622;5.526;2023-01-30T17:56:59;6.45;;;1.70;;
76396;SDS011;66045;51.622;5.526;2023-01-30T17:59:26;4.53;;;1.10;;
76396;SDS011;66045;51.622;5.526;2023-01-30T18:01:52;4.57;;;1.77;;
76396;SDS011;66045;51.622;5.526;2023-01-30T18:04:17;7.22;;;1.60;;
76396;SDS011;66045;51.622;5.526;2023-01-30T18:06:45;4.30;;;1.40;;
76396;SDS011;66045;51.622;5.526;2023-01-30T18:09:19;6.28;;;1.50;;
76396;SDS011;66045;51.622;5.526;2023-01-30T18:11:46;5.82;;;1.50;;
76396;SDS011;66045;51.622;5.526;2023-01-30T18:14:12;5.18;;;1.40;;
76396;SDS011;66045;51.622;5.526;2023-01-30T18:16:38;5.03;;;1.80;;